createdAt,value
2022-10-21T00:00:29.196Z,11.01
2022-10-21T00:02:58.009Z,10.91
2022-10-21T00:05:24.422Z,10.92
2022-10-21T00:07:50.808Z,11.02
2022-10-21T00:10:17.116Z,10.99
2022-10-21T00:12:43.616Z,11.07
2022-10-21T00:15:12.833Z,11.06
2022-10-21T00:17:43.136Z,10.99
2022-10-21T00:20:11.283Z,10.94
2022-10-21T00:22:37.829Z,10.94
2022-10-21T00:25:05.005Z,10.95
2022-10-21T00:27:31.350Z,11.03
2022-10-21T00:29:57.707Z,10.97
2022-10-21T00:32:26.504Z,11.02
2022-10-21T00:34:52.795Z,11.01
2022-10-21T00:37:21.486Z,11.06
2022-10-21T00:39:47.793Z,11.01
2022-10-21T00:42:15.449Z,11.02
2022-10-21T00:44:44.257Z,10.96
2022-10-21T00:47:16.905Z,10.98
2022-10-21T00:49:46.305Z,10.90
2022-10-21T00:52:14.736Z,11.00
2022-10-21T00:54:41.870Z,10.98
2022-10-21T00:57:08.821Z,10.99
2022-10-21T00:59:38.755Z,10.87
2022-10-21T01:02:05.470Z,10.93
2022-10-21T01:04:31.985Z,11.00
2022-10-21T01:06:59.764Z,11.03
2022-10-21T01:09:26.284Z,11.12
2022-10-21T01:11:52.804Z,11.10
2022-10-21T01:14:19.285Z,11.09
2022-10-21T01:16:55.086Z,11.08
2022-10-21T01:19:33.402Z,11.14
2022-10-21T01:22:19.965Z,11.14
2022-10-21T01:24:52.250Z,11.21
2022-10-21T01:27:26.067Z,11.24
2022-10-21T01:30:11.266Z,11.20
2022-10-21T01:32:43.836Z,11.23
2022-10-21T01:35:14.010Z,11.33
2022-10-21T01:37:49.312Z,11.23
2022-10-21T01:40:22.052Z,11.21
2022-10-21T01:42:59.682Z,11.19
2022-10-21T01:45:25.980Z,11.11
2022-10-21T01:48:03.977Z,11.05
2022-10-21T01:50:32.280Z,11.07
2022-10-21T01:53:01.756Z,11.05
2022-10-21T01:55:30.762Z,11.11
2022-10-21T01:58:01.967Z,11.05
2022-10-21T02:00:29.327Z,11.09
2022-10-21T02:02:56.073Z,11.21
2022-10-21T02:05:25.293Z,11.13
2022-10-21T02:07:54.627Z,11.09
2022-10-21T02:10:21.761Z,11.09
2022-10-21T02:12:49.541Z,11.05
2022-10-21T02:15:19.551Z,11.13
2022-10-21T02:17:49.392Z,11.15
2022-10-21T02:20:16.430Z,11.10
2022-10-21T02:22:44.073Z,11.19
2022-10-21T02:25:18.777Z,11.14
2022-10-21T02:27:45.418Z,11.21
2022-10-21T02:30:12.101Z,11.22
2022-10-21T02:32:41.675Z,11.27
2022-10-21T02:35:14.153Z,11.36
2022-10-21T02:38:09.786Z,11.24
2022-10-21T02:40:36.072Z,11.22
2022-10-21T02:43:09.044Z,11.33
2022-10-21T02:45:35.747Z,11.20
2022-10-21T02:48:02.065Z,11.17
2022-10-21T02:50:28.419Z,11.22
2022-10-21T02:52:54.878Z,11.13
2022-10-21T02:55:21.177Z,11.06
2022-10-21T02:57:47.560Z,11.09
2022-10-21T03:00:13.988Z,10.98
2022-10-21T03:02:42.022Z,10.96
2022-10-21T03:05:09.343Z,10.90
2022-10-21T03:07:36.106Z,10.90
2022-10-21T03:10:02.614Z,10.87
2022-10-21T03:12:28.918Z,10.71
2022-10-21T03:14:55.310Z,10.68
2022-10-21T03:17:24.422Z,10.61
2022-10-21T03:19:51.728Z,10.67
2022-10-21T03:22:18.040Z,10.74
2022-10-21T03:24:46.836Z,10.58
2022-10-21T03:27:13.159Z,10.54
2022-10-21T03:29:39.465Z,10.56
2022-10-21T03:32:05.840Z,10.67
2022-10-21T03:34:32.202Z,10.60
2022-10-21T03:36:58.564Z,10.65
2022-10-21T03:39:24.914Z,10.44
2022-10-21T03:41:51.258Z,10.56
2022-10-21T03:44:17.600Z,10.45
2022-10-21T03:46:43.914Z,10.41
2022-10-21T03:49:18.343Z,10.38
2022-10-21T03:51:47.653Z,10.36
2022-10-21T03:54:13.945Z,10.30
2022-10-21T03:56:40.291Z,10.35
2022-10-21T03:59:06.628Z,10.22
2022-10-21T04:01:32.966Z,10.33
2022-10-21T04:03:59.381Z,10.15
2022-10-21T04:06:25.724Z,10.21
2022-10-21T04:08:52.110Z,10.25
2022-10-21T04:11:18.473Z,10.20
2022-10-21T04:13:44.910Z,10.17
2022-10-21T04:16:14.514Z,10.13
2022-10-21T04:18:40.866Z,10.12
2022-10-21T04:21:08.687Z,10.10
2022-10-21T04:23:37.976Z,10.11
2022-10-21T04:26:05.051Z,10.12
2022-10-21T04:28:31.773Z,10.10
2022-10-21T04:30:58.159Z,10.20
2022-10-21T04:33:24.512Z,10.14
2022-10-21T04:35:50.850Z,10.10
2022-10-21T04:38:17.143Z,10.21
2022-10-21T04:40:43.476Z,10.11
2022-10-21T04:43:09.770Z,10.03
2022-10-21T04:45:38.592Z,10.02
2022-10-21T04:48:05.085Z,10.07
2022-10-21T04:50:32.518Z,10.18
2022-10-21T04:52:58.813Z,10.16
2022-10-21T04:55:25.254Z,10.28
2022-10-21T04:57:51.579Z,10.21
2022-10-21T05:00:17.919Z,10.26
2022-10-21T05:02:44.292Z,10.17
2022-10-21T05:05:10.627Z,10.24
2022-10-21T05:07:36.959Z,10.26
2022-10-21T05:10:03.389Z,10.23
2022-10-21T05:12:29.707Z,10.20
2022-10-21T05:14:56.116Z,10.15
2022-10-21T05:17:22.393Z,10.08
2022-10-21T05:19:48.749Z,10.20
2022-10-21T05:22:15.032Z,10.16
2022-10-21T05:24:41.322Z,10.15
2022-10-21T05:27:07.632Z,10.19
2022-10-21T05:29:33.946Z,10.18
2022-10-21T05:32:00.250Z,10.20
2022-10-21T05:34:26.535Z,10.14
2022-10-21T05:36:52.849Z,10.19
2022-10-21T05:39:19.193Z,10.17
2022-10-21T05:41:47.856Z,10.21
2022-10-21T05:44:14.708Z,10.13
2022-10-21T05:46:41.019Z,10.01
2022-10-21T05:49:07.552Z,10.01
2022-10-21T05:51:33.915Z,10.04
2022-10-21T05:54:05.699Z,10.04
2022-10-21T05:56:32.597Z,10.07
2022-10-21T05:58:58.908Z,10.15
2022-10-21T06:01:25.295Z,10.27
2022-10-21T06:03:51.910Z,10.27
2022-10-21T06:06:18.350Z,10.32
2022-10-21T06:08:45.007Z,10.27
2022-10-21T06:11:12.752Z,10.27
2022-10-21T06:13:39.393Z,10.31
2022-10-21T06:18:40.594Z,10.46
2022-10-21T06:21:07.213Z,10.63
2022-10-21T06:23:36.718Z,10.61
2022-10-21T06:26:04.294Z,10.55
2022-10-21T06:28:32.263Z,10.55
2022-10-21T06:30:58.640Z,10.53
2022-10-21T06:33:27.025Z,10.57
2022-10-21T06:35:53.932Z,10.62
2022-10-21T06:38:20.332Z,10.70
2022-10-21T06:40:48.673Z,10.65
2022-10-21T06:43:15.637Z,10.84
2022-10-21T06:45:42.008Z,10.81
2022-10-21T06:48:08.507Z,10.82
2022-10-21T06:50:36.560Z,10.75
2022-10-21T06:53:03.134Z,10.74
2022-10-21T06:55:29.490Z,10.78
2022-10-21T06:57:55.896Z,10.85
2022-10-21T07:00:22.372Z,10.95
2022-10-21T07:02:48.769Z,10.88
2022-10-21T07:05:15.155Z,11.03
2022-10-21T07:07:41.882Z,11.25
2022-10-21T07:10:08.497Z,11.29
2022-10-21T07:12:35.173Z,11.37
2022-10-21T07:15:01.524Z,11.41
2022-10-21T07:17:33.510Z,11.54
2022-10-21T07:20:00.544Z,11.79
2022-10-21T07:22:26.951Z,11.90
2022-10-21T07:24:53.295Z,11.85
2022-10-21T07:27:19.710Z,11.83
2022-10-21T07:29:46.096Z,12.09
2022-10-21T07:32:12.433Z,12.16
2022-10-21T07:34:38.786Z,12.35
2022-10-21T07:37:05.219Z,12.30
2022-10-21T07:39:31.621Z,12.31
2022-10-21T07:41:58.209Z,12.19
2022-10-21T07:44:25.644Z,12.10
2022-10-21T07:46:52.953Z,12.04
2022-10-21T07:49:19.949Z,12.12
2022-10-21T07:51:46.469Z,12.21
2022-10-21T07:54:13.582Z,12.03
2022-10-21T07:56:43.232Z,12.15
2022-10-21T07:59:13.032Z,12.28
2022-10-21T08:01:44.182Z,12.33
2022-10-21T08:04:12.051Z,12.32
2022-10-21T08:06:39.273Z,12.31
2022-10-21T08:09:05.793Z,12.26
2022-10-21T08:11:33.066Z,12.50
2022-10-21T08:13:59.476Z,12.79
2022-10-21T08:16:28.747Z,12.95
2022-10-21T08:18:55.526Z,13.03
2022-10-21T08:21:21.862Z,12.94
2022-10-21T08:23:48.212Z,12.91
2022-10-21T08:26:15.659Z,12.85
2022-10-21T08:28:42.681Z,12.75
2022-10-21T08:31:10.981Z,12.76
2022-10-21T08:33:37.979Z,12.72
2022-10-21T08:36:06.935Z,12.79
2022-10-21T08:38:33.377Z,12.93
2022-10-21T08:41:00.061Z,12.85
2022-10-21T08:43:31.559Z,12.83
2022-10-21T08:45:57.915Z,12.89
2022-10-21T08:48:33.532Z,12.87
2022-10-21T08:51:00.475Z,12.87
2022-10-21T08:53:33.219Z,12.95
2022-10-21T08:56:06.342Z,12.86
2022-10-21T08:58:32.873Z,13.08
2022-10-21T09:01:03.577Z,12.95
2022-10-21T09:03:29.929Z,12.86
2022-10-21T09:06:15.055Z,12.85
2022-10-21T09:09:00.465Z,12.81
2022-10-21T09:11:41.895Z,12.89
2022-10-21T09:14:17.927Z,12.86
2022-10-21T09:16:44.661Z,12.85
2022-10-21T09:19:14.035Z,12.91
2022-10-21T09:21:43.501Z,12.86
2022-10-21T09:24:14.107Z,12.88
2022-10-21T09:26:41.934Z,13.00
2022-10-21T09:29:28.567Z,13.03
2022-10-21T09:32:13.648Z,12.98
2022-10-21T09:34:58.915Z,12.94
2022-10-21T09:37:33.244Z,12.99
2022-10-21T09:40:13.514Z,13.00
2022-10-21T09:42:47.597Z,13.06
2022-10-21T09:45:34.667Z,13.01
2022-10-21T09:48:06.435Z,13.07
2022-10-21T09:50:34.563Z,13.14
2022-10-21T09:53:24.009Z,13.17
2022-10-21T09:55:58.696Z,13.34
2022-10-21T09:58:26.808Z,13.31
2022-10-21T10:00:53.328Z,13.28
2022-10-21T10:03:49.361Z,13.22
2022-10-21T10:06:29.746Z,13.32
2022-10-21T10:09:05.843Z,13.38
2022-10-21T10:11:32.166Z,13.38
2022-10-21T10:14:16.537Z,13.56
2022-10-21T10:16:42.867Z,13.50
2022-10-21T10:19:22.387Z,13.51
2022-10-21T10:22:10.250Z,13.65
2022-10-21T10:24:37.455Z,13.83
2022-10-21T10:27:05.603Z,13.92
2022-10-21T10:29:34.614Z,13.90
2022-10-21T10:32:01.620Z,13.94
2022-10-21T10:34:31.044Z,13.89
2022-10-21T10:37:06.509Z,14.01
2022-10-21T10:39:34.851Z,14.04
2022-10-21T10:42:02.151Z,14.09
2022-10-21T10:44:32.048Z,14.02
2022-10-21T10:47:00.292Z,14.06
2022-10-21T10:49:27.588Z,13.93
2022-10-21T10:52:04.096Z,13.97
2022-10-21T10:54:30.587Z,13.89
2022-10-21T10:56:59.413Z,13.87
2022-10-21T10:59:34.714Z,13.91
2022-10-21T11:02:01.056Z,13.91
2022-10-21T11:04:32.411Z,13.78
2022-10-21T11:07:03.003Z,13.85
2022-10-21T11:09:31.278Z,13.87
2022-10-21T11:11:57.916Z,13.80
2022-10-21T11:14:26.494Z,14.00
2022-10-21T11:17:11.644Z,14.03
2022-10-21T11:19:37.970Z,14.21
2022-10-21T11:22:06.160Z,14.21
2022-10-21T11:24:32.654Z,14.23
2022-10-21T11:27:07.363Z,14.32
2022-10-21T11:29:36.790Z,14.32
2022-10-21T11:32:11.925Z,14.44
2022-10-21T11:34:51.543Z,14.38
2022-10-21T11:37:36.875Z,14.62
2022-10-21T11:40:22.386Z,14.53
2022-10-21T11:42:50.870Z,14.53
2022-10-21T11:45:37.743Z,14.67
2022-10-21T11:48:19.148Z,14.69
2022-10-21T11:50:48.549Z,14.67
2022-10-21T11:53:30.905Z,14.75
2022-10-21T11:56:07.643Z,14.76
2022-10-21T11:58:37.108Z,14.70
2022-10-21T12:01:06.628Z,14.63
2022-10-21T12:03:36.921Z,14.58
2022-10-21T12:06:12.754Z,14.57
2022-10-21T12:08:55.905Z,14.56
2022-10-21T12:11:26.359Z,14.64
2022-10-21T12:13:57.763Z,14.72
2022-10-21T12:16:29.608Z,14.74
2022-10-21T12:18:57.988Z,14.84
2022-10-21T12:21:26.187Z,15.06
2022-10-21T12:24:12.836Z,15.11
2022-10-21T12:26:47.355Z,15.20
2022-10-21T12:29:13.732Z,15.19
2022-10-21T12:31:49.175Z,15.28
2022-10-21T12:34:15.793Z,15.35
2022-10-21T12:36:46.909Z,15.35
2022-10-21T12:39:17.571Z,15.38
2022-10-21T12:41:45.594Z,15.63
2022-10-21T12:44:21.404Z,15.49
2022-10-21T12:46:55.800Z,15.57
2022-10-21T12:49:23.770Z,15.56
2022-10-21T12:51:52.956Z,15.68
2022-10-21T12:54:25.337Z,15.74
2022-10-21T12:57:05.001Z,15.71
2022-10-21T12:59:33.626Z,15.60
2022-10-21T13:02:05.853Z,15.77
2022-10-21T13:04:32.196Z,15.75
2022-10-21T13:07:00.038Z,15.69
2022-10-21T13:09:34.047Z,15.78
2022-10-21T13:12:12.915Z,15.70
2022-10-21T13:14:40.696Z,15.88
2022-10-21T13:17:28.729Z,15.91
2022-10-21T13:19:56.541Z,15.89
2022-10-21T13:22:37.663Z,15.95
2022-10-21T13:25:19.349Z,15.84
2022-10-21T13:27:48.318Z,15.93
2022-10-21T13:30:29.002Z,15.90
2022-10-21T13:33:21.932Z,15.95
2022-10-21T13:35:53.595Z,16.07
2022-10-21T13:38:33.567Z,16.25
2022-10-21T13:41:04.856Z,16.25
2022-10-21T13:43:39.194Z,16.38
2022-10-21T13:46:07.683Z,16.48
2022-10-21T13:48:38.256Z,16.40
2022-10-21T13:51:16.129Z,16.34
2022-10-21T13:53:45.659Z,16.40
2022-10-21T13:56:20.070Z,16.37
2022-10-21T13:58:46.577Z,16.37
2022-10-21T14:01:20.055Z,16.51
2022-10-21T14:03:46.799Z,16.42
2022-10-21T14:06:19.650Z,16.49
2022-10-21T14:08:47.087Z,16.46
2022-10-21T14:11:36.398Z,16.49
2022-10-21T14:14:07.203Z,16.45
2022-10-21T14:16:37.956Z,16.55
2022-10-21T14:19:21.509Z,16.53
2022-10-21T14:21:49.434Z,16.46
2022-10-21T14:24:37.505Z,16.50
2022-10-21T14:27:04.658Z,16.44
2022-10-21T14:29:33.207Z,16.43
2022-10-21T14:32:00.416Z,16.41
2022-10-21T14:34:28.573Z,16.35
2022-10-21T14:37:09.436Z,16.39
2022-10-21T14:39:38.249Z,16.47
2022-10-21T14:42:14.255Z,16.33
2022-10-21T14:44:42.095Z,16.14
2022-10-21T14:47:16.809Z,16.07
2022-10-21T14:49:45.994Z,16.06
2022-10-21T14:52:23.165Z,16.06
2022-10-21T14:54:54.531Z,16.06
2022-10-21T14:57:42.561Z,16.12
2022-10-21T15:00:20.555Z,16.06
2022-10-21T15:02:47.175Z,16.13
2022-10-21T15:05:32.612Z,16.08
2022-10-21T15:08:14.520Z,16.13
2022-10-21T15:10:41.264Z,16.15
2022-10-21T15:13:20.121Z,16.05
2022-10-21T15:15:53.218Z,15.99
2022-10-21T15:18:21.858Z,16.01
2022-10-21T15:20:50.338Z,15.97
2022-10-21T15:23:22.110Z,15.87
2022-10-21T15:25:51.408Z,15.86
2022-10-21T15:28:18.888Z,15.89
2022-10-21T15:30:45.384Z,15.81
2022-10-21T15:33:12.516Z,15.74
2022-10-21T15:35:38.856Z,15.73
2022-10-21T15:38:05.475Z,15.70
2022-10-21T15:40:32.888Z,15.69
2022-10-21T15:42:59.323Z,15.68
2022-10-21T15:45:25.693Z,15.64
2022-10-21T15:47:53.005Z,15.57
2022-10-21T15:50:23.756Z,15.52
2022-10-21T15:52:50.160Z,15.53
2022-10-21T15:55:16.625Z,15.45
2022-10-21T15:57:43.036Z,15.33
2022-10-21T16:00:12.613Z,15.27
2022-10-21T16:02:41.729Z,15.22
2022-10-21T16:05:09.191Z,15.11
2022-10-21T16:07:36.984Z,15.10
2022-10-21T16:10:22.764Z,15.12
2022-10-21T16:12:49.768Z,15.11
2022-10-21T16:15:16.676Z,15.04
2022-10-21T16:17:44.101Z,15.00
2022-10-21T16:22:46.167Z,14.92
2022-10-21T16:25:12.690Z,14.89
2022-10-21T16:27:51.308Z,14.90
2022-10-21T16:30:26.756Z,14.79
2022-10-21T16:32:53.150Z,14.73
2022-10-21T16:35:20.159Z,14.77
2022-10-21T16:37:47.045Z,14.71
2022-10-21T16:40:24.490Z,14.63
2022-10-21T16:42:51.317Z,14.52
2022-10-21T16:45:18.784Z,14.39
2022-10-21T16:47:48.488Z,14.42
2022-10-21T16:50:39.572Z,14.43
2022-10-21T16:53:09.343Z,14.32
2022-10-21T16:55:35.689Z,14.33
2022-10-21T16:58:02.076Z,14.39
2022-10-21T17:00:28.517Z,14.32
2022-10-21T17:02:54.976Z,14.35
2022-10-21T17:05:21.756Z,14.33
2022-10-21T17:07:48.261Z,14.42
2022-10-21T17:10:14.756Z,14.49
2022-10-21T17:12:41.324Z,14.42
2022-10-21T17:15:08.479Z,14.32
2022-10-21T17:17:36.611Z,14.30
2022-10-21T17:20:03.540Z,14.32
2022-10-21T17:22:30.016Z,14.24
2022-10-21T17:24:56.363Z,14.24
2022-10-21T17:27:25.196Z,14.22
2022-10-21T17:29:51.615Z,14.14
2022-10-21T17:32:18.178Z,14.09
2022-10-21T17:34:44.884Z,14.18
2022-10-21T17:37:12.150Z,14.17
2022-10-21T17:39:38.618Z,14.06
2022-10-21T17:42:05.026Z,14.06
2022-10-21T17:44:31.422Z,14.02
2022-10-21T17:46:57.802Z,14.04
2022-10-21T17:49:25.139Z,14.04
2022-10-21T17:51:51.713Z,13.98
2022-10-21T17:54:24.563Z,14.04
2022-10-21T17:56:55.051Z,13.92
2022-10-21T17:59:24.268Z,13.90
2022-10-21T18:01:50.681Z,13.89
2022-10-21T18:04:17.069Z,13.81
2022-10-21T18:06:43.661Z,13.72
2022-10-21T18:09:10.270Z,13.82
2022-10-21T18:11:37.339Z,13.83
2022-10-21T18:14:04.018Z,13.82
2022-10-21T18:16:30.453Z,13.75
2022-10-21T18:19:00.114Z,13.68
2022-10-21T18:21:29.394Z,13.66
2022-10-21T18:23:55.979Z,13.68
2022-10-21T18:26:27.283Z,13.67
2022-10-21T18:28:57.975Z,13.59
2022-10-21T18:31:28.225Z,13.59
2022-10-21T18:33:55.023Z,13.52
2022-10-21T18:36:24.175Z,13.49
2022-10-21T18:38:50.713Z,13.45
2022-10-21T18:41:20.518Z,13.56
2022-10-21T18:43:54.407Z,13.50
2022-10-21T18:46:21.563Z,13.36
2022-10-21T18:48:48.461Z,13.42
2022-10-21T18:51:16.164Z,13.41
2022-10-21T18:53:42.619Z,13.37
2022-10-21T18:56:10.625Z,13.28
2022-10-21T18:58:37.584Z,13.30
2022-10-21T19:01:04.424Z,13.36
2022-10-21T19:03:31.374Z,13.29
2022-10-21T19:05:57.759Z,13.23
2022-10-21T19:08:24.181Z,13.35
2022-10-21T19:10:50.564Z,13.37
2022-10-21T19:13:17.044Z,13.34
2022-10-21T19:15:43.487Z,13.45
2022-10-21T19:18:13.109Z,13.40
2022-10-21T19:20:40.308Z,13.40
2022-10-21T19:23:07.559Z,13.41
2022-10-21T19:25:34.073Z,13.31
2022-10-21T19:28:02.808Z,13.36
2022-10-21T19:30:31.018Z,13.35
2022-10-21T19:33:00.411Z,13.38
2022-10-21T19:35:29.264Z,13.38
2022-10-21T19:38:00.502Z,13.48
2022-10-21T19:40:29.605Z,13.44
2022-10-21T19:42:55.948Z,13.39
2022-10-21T19:45:22.305Z,13.41
2022-10-21T19:47:48.660Z,13.39
2022-10-21T19:50:15.153Z,13.34
2022-10-21T19:52:41.837Z,13.33
2022-10-21T19:55:08.871Z,13.34
2022-10-21T19:57:35.255Z,13.34
2022-10-21T20:00:01.823Z,13.34
2022-10-21T20:02:28.212Z,13.25
2022-10-21T20:04:54.554Z,13.27
2022-10-21T20:07:20.915Z,13.24
2022-10-21T20:09:47.355Z,13.23
2022-10-21T20:12:13.675Z,13.29
2022-10-21T20:14:41.004Z,13.30
2022-10-21T20:17:07.455Z,13.30
2022-10-21T20:19:33.930Z,13.33
2022-10-21T20:22:00.470Z,13.39
2022-10-21T20:24:29.389Z,13.42
2022-10-21T20:26:59.676Z,13.43
2022-10-21T20:29:28.555Z,13.38
2022-10-21T20:31:54.942Z,13.42
2022-10-21T20:34:21.376Z,13.41
2022-10-21T20:36:47.787Z,13.39
2022-10-21T20:39:14.189Z,13.30
2022-10-21T20:41:40.782Z,13.29
2022-10-21T20:44:08.297Z,13.25
2022-10-21T20:46:37.421Z,13.23
2022-10-21T20:49:05.129Z,13.18
2022-10-21T20:51:31.552Z,13.27
2022-10-21T20:54:07.699Z,13.21
2022-10-21T20:56:36.190Z,13.23
2022-10-21T20:59:03.268Z,13.30
2022-10-21T21:01:33.652Z,13.28
2022-10-21T21:04:01.516Z,13.24
2022-10-21T21:06:28.114Z,13.26
2022-10-21T21:09:28.918Z,13.23
2022-10-21T21:11:43.226Z,13.14
2022-10-21T21:14:09.646Z,13.06
2022-10-21T21:16:36.211Z,13.18
2022-10-21T21:19:04.211Z,13.24
2022-10-21T21:21:32.138Z,13.34
2022-10-21T21:23:58.794Z,13.31
2022-10-21T21:26:26.506Z,13.33
2022-10-21T21:28:52.919Z,13.22
2022-10-21T21:31:20.420Z,13.16
2022-10-21T21:33:47.081Z,13.17
2022-10-21T21:36:14.229Z,13.17
2022-10-21T21:38:40.748Z,13.09
2022-10-21T21:41:10.666Z,13.04
2022-10-21T21:43:41.495Z,13.09
2022-10-21T21:46:08.146Z,13.08
2022-10-21T21:48:34.694Z,13.13
2022-10-21T21:51:07.544Z,13.13
2022-10-21T21:53:33.925Z,13.14
2022-10-21T21:56:03.094Z,13.07
2022-10-21T21:58:29.897Z,13.01
2022-10-21T22:00:56.251Z,13.06
2022-10-21T22:03:22.631Z,13.08
2022-10-21T22:05:49.113Z,13.07
2022-10-21T22:08:15.476Z,13.09
2022-10-21T22:10:42.607Z,13.11
2022-10-21T22:13:09.263Z,13.03
2022-10-21T22:15:47.697Z,13.01
2022-10-21T22:18:14.982Z,12.95
2022-10-21T22:20:41.354Z,13.02
2022-10-21T22:23:07.695Z,13.06
2022-10-21T22:28:04.014Z,13.03
2022-10-21T22:30:30.333Z,13.12
2022-10-21T22:32:56.730Z,13.12
2022-10-21T22:35:23.120Z,13.22
2022-10-21T22:37:49.464Z,13.27
2022-10-21T22:40:18.150Z,13.19
2022-10-21T22:45:15.797Z,13.11
2022-10-21T22:47:42.485Z,13.08
2022-10-21T22:50:09.143Z,13.09
2022-10-21T22:52:35.593Z,13.07
2022-10-21T22:55:01.941Z,13.13
2022-10-21T22:57:28.248Z,13.15
2022-10-21T22:59:54.619Z,13.21
2022-10-21T23:02:21.194Z,13.22
2022-10-21T23:04:47.598Z,13.18
2022-10-21T23:07:13.976Z,13.24
2022-10-21T23:09:40.361Z,13.21
2022-10-21T23:12:06.725Z,13.10
2022-10-21T23:14:33.213Z,13.14
2022-10-21T23:16:59.567Z,13.12
2022-10-21T23:19:25.905Z,13.13
2022-10-21T23:21:52.318Z,13.11
2022-10-21T23:24:18.754Z,13.04
2022-10-21T23:26:45.159Z,13.07
2022-10-21T23:29:11.644Z,13.03
2022-10-21T23:31:38.081Z,13.04
2022-10-21T23:34:05.918Z,13.06
2022-10-21T23:36:33.188Z,13.02
2022-10-21T23:38:59.523Z,13.02
2022-10-21T23:41:25.957Z,12.98
2022-10-21T23:43:54.771Z,12.98
2022-10-21T23:46:21.396Z,13.00
2022-10-21T23:48:47.882Z,13.01
2022-10-21T23:51:14.223Z,13.00
2022-10-21T23:53:40.756Z,13.00
2022-10-21T23:56:07.512Z,12.97
2022-10-21T23:58:34.002Z,12.97
